createdAt,value
2022-09-11T00:03:24.574Z,97159.91
2022-09-11T00:08:27.373Z,97144.38
2022-09-11T00:13:29.055Z,97151.72
2022-09-11T00:18:31.123Z,97154.78
2022-09-11T00:23:33.323Z,97158.91
2022-09-11T00:28:36.992Z,97150.09
2022-09-11T00:33:39.709Z,97152.84
2022-09-11T00:38:42.847Z,97147.63
2022-09-11T00:43:52.249Z,97152.00
2022-09-11T00:48:55.855Z,97147.94
2022-09-11T00:53:58.697Z,97142.72
2022-09-11T00:59:01.191Z,97141.47
2022-09-11T01:04:05.639Z,97144.75
2022-09-11T01:09:07.380Z,97146.16
2022-09-11T01:14:37.894Z,97145.50
2022-09-11T01:20:09.142Z,97145.00
2022-09-11T01:25:29.090Z,97141.66
2022-09-11T01:30:41.021Z,97147.16
2022-09-11T01:35:49.295Z,97135.97
2022-09-11T01:41:02.557Z,97141.81
2022-09-11T01:46:07.942Z,97132.19
2022-09-11T01:51:18.790Z,97139.03
2022-09-11T01:56:26.107Z,97136.28
2022-09-11T02:01:32.941Z,97134.03
2022-09-11T02:06:42.321Z,97133.75
2022-09-11T02:11:48.528Z,97128.53
2022-09-11T02:17:31.615Z,97133.31
2022-09-11T02:22:33.637Z,97123.19
2022-09-11T02:27:36.965Z,97113.34
2022-09-11T02:32:40.832Z,97115.59
2022-09-11T02:38:06.357Z,97107.00
2022-09-11T02:43:20.094Z,97115.00
2022-09-11T02:48:36.453Z,97109.47
2022-09-11T02:54:27.890Z,97106.78
2022-09-11T02:59:39.905Z,97106.78
2022-09-11T03:04:45.525Z,97106.19
2022-09-11T03:09:47.274Z,97109.69
2022-09-11T03:14:54.881Z,97105.56
2022-09-11T03:19:56.895Z,97107.53
2022-09-11T03:24:59.199Z,97103.72
2022-09-11T03:30:03.574Z,97111.81
2022-09-11T03:35:06.198Z,97115.97
2022-09-11T03:40:08.480Z,97103.53
2022-09-11T03:45:11.980Z,97106.97
2022-09-11T03:50:14.135Z,97099.34
2022-09-11T03:55:16.611Z,97098.28
2022-09-11T04:00:18.483Z,97091.97
2022-09-11T04:05:26.157Z,97102.06
2022-09-11T04:10:29.005Z,97091.53
2022-09-11T04:15:33.354Z,97094.50
2022-09-11T04:20:39.537Z,97092.88
2022-09-11T04:25:41.366Z,97087.06
2022-09-11T04:30:43.114Z,97090.56
2022-09-11T04:35:45.256Z,97087.56
2022-09-11T04:40:47.759Z,97088.91
2022-09-11T04:45:49.651Z,97095.84
2022-09-11T04:51:04.814Z,97095.53
2022-09-11T04:56:10.447Z,97091.16
2022-09-11T05:01:17.534Z,97094.44
2022-09-11T05:06:24.858Z,97095.03
2022-09-11T05:11:27.871Z,97093.19
2022-09-11T05:16:31.539Z,97105.84
2022-09-11T05:21:34.126Z,97103.97
2022-09-11T05:26:37.931Z,97100.63
2022-09-11T05:31:42.282Z,97103.38
2022-09-11T05:36:45.879Z,97112.03
2022-09-11T05:41:51.456Z,97119.50
2022-09-11T05:46:53.293Z,97116.28
2022-09-11T05:51:55.097Z,97133.72
2022-09-11T05:56:58.782Z,97135.13
2022-09-11T06:02:01.772Z,97151.72
2022-09-11T06:07:12.982Z,97150.03
2022-09-11T06:12:19.074Z,97157.47
2022-09-11T06:17:23.182Z,97160.78
2022-09-11T06:22:29.280Z,97165.91
2022-09-11T06:27:31.314Z,97164.22
2022-09-11T06:32:33.294Z,97169.72
2022-09-11T06:37:35.767Z,97171.88
2022-09-11T06:42:37.609Z,97175.69
2022-09-11T06:47:39.338Z,97183.34
2022-09-11T06:52:41.524Z,97188.34
2022-09-11T06:57:50.015Z,97188.34
2022-09-11T07:02:57.250Z,97188.28
2022-09-11T07:08:00.049Z,97199.25
2022-09-11T07:13:06.105Z,97199.25
2022-09-11T07:18:08.523Z,97206.69
2022-09-11T07:23:10.798Z,97208.31
2022-09-11T07:28:12.516Z,97219.59
2022-09-11T07:33:15.871Z,97223.22
2022-09-11T07:38:18.531Z,97227.81
2022-09-11T07:43:21.330Z,97225.72
2022-09-11T07:48:23.096Z,97229.84
2022-09-11T07:53:25.843Z,97241.91
2022-09-11T07:58:27.657Z,97246.84
2022-09-11T08:03:31.110Z,97245.41
2022-09-11T08:08:33.025Z,97250.63
2022-09-11T08:13:35.810Z,97255.06
2022-09-11T08:18:37.901Z,97254.34
2022-09-11T08:23:42.567Z,97260.84
2022-09-11T08:28:45.760Z,97266.31
2022-09-11T08:33:49.237Z,97281.66
2022-09-11T08:38:52.666Z,97280.53
2022-09-11T08:44:06.545Z,97282.50
2022-09-11T08:49:15.804Z,97296.59
2022-09-11T08:54:31.920Z,97297.56
2022-09-11T08:59:50.360Z,97310.59
2022-09-11T09:04:55.330Z,97302.59
2022-09-11T09:10:19.753Z,97322.16
2022-09-11T09:15:42.342Z,97325.06
2022-09-11T09:20:50.079Z,97339.81
2022-09-11T09:25:55.918Z,97332.66
2022-09-11T09:31:03.910Z,97332.59
2022-09-11T09:36:29.075Z,97340.25
2022-09-11T09:41:46.219Z,97348.28
2022-09-11T09:46:51.946Z,97342.84
2022-09-11T09:51:59.818Z,97355.66
2022-09-11T09:57:10.492Z,97354.94
2022-09-11T10:02:12.387Z,97352.19
2022-09-11T10:07:21.719Z,97357.09
2022-09-11T10:12:27.249Z,97353.41
2022-09-11T10:17:32.314Z,97349.03
2022-09-11T10:22:34.072Z,97355.19
2022-09-11T10:27:44.381Z,97351.41
2022-09-11T10:32:46.175Z,97363.25
2022-09-11T10:38:00.475Z,97361.84
2022-09-11T10:43:02.992Z,97362.34
2022-09-11T10:48:15.158Z,97362.75
2022-09-11T10:53:23.186Z,97369.00
2022-09-11T10:58:31.087Z,97376.84
2022-09-11T11:03:33.066Z,97369.75
2022-09-11T11:08:57.924Z,97373.94
2022-09-11T11:14:28.726Z,97372.16
2022-09-11T11:19:41.057Z,97368.22
2022-09-11T11:24:46.558Z,97377.53
2022-09-11T11:30:15.670Z,97376.75
2022-09-11T11:35:21.487Z,97379.53
2022-09-11T11:40:40.478Z,97389.00
2022-09-11T11:45:47.046Z,97392.75
2022-09-11T11:51:04.662Z,97395.94
2022-09-11T11:56:36.035Z,97392.16
2022-09-11T12:01:37.839Z,97399.97
2022-09-11T12:06:39.635Z,97401.84
2022-09-11T12:11:45.803Z,97393.03
2022-09-11T12:16:49.275Z,97401.34
2022-09-11T12:21:54.017Z,97395.41
2022-09-11T12:27:34.377Z,97394.78
2022-09-11T12:32:47.900Z,97394.47
2022-09-11T12:38:10.210Z,97399.19
2022-09-11T12:43:35.412Z,97397.50
2022-09-11T12:49:25.801Z,97399.84
2022-09-11T12:54:42.442Z,97389.97
2022-09-11T12:59:52.457Z,97393.81
2022-09-11T13:04:55.227Z,97385.97
2022-09-11T13:10:03.138Z,97387.78
2022-09-11T13:15:05.274Z,97373.75
2022-09-11T13:20:08.261Z,97379.59
2022-09-11T13:25:16.200Z,97369.78
2022-09-11T13:30:21.624Z,97374.69
2022-09-11T13:35:28.651Z,97376.78
2022-09-11T13:40:52.348Z,97369.34
2022-09-11T13:46:11.027Z,97353.94
2022-09-11T13:51:31.763Z,97355.22
2022-09-11T13:56:45.173Z,97351.91
2022-09-11T14:02:00.804Z,97353.53
2022-09-11T14:07:02.840Z,97366.34
2022-09-11T14:12:04.766Z,97349.34
2022-09-11T14:17:10.702Z,97362.28
2022-09-11T14:22:27.044Z,97349.69
2022-09-11T14:27:34.881Z,97352.94
2022-09-11T14:32:39.055Z,97356.19
2022-09-11T14:37:45.746Z,97350.94
2022-09-11T14:42:48.231Z,97350.16
2022-09-11T14:47:50.999Z,97338.56
2022-09-11T14:52:52.751Z,97345.28
2022-09-11T14:57:54.435Z,97337.91
2022-09-11T15:02:56.214Z,97334.31
2022-09-11T15:08:00.435Z,97331.31
2022-09-11T15:13:03.002Z,97324.09
2022-09-11T15:18:07.370Z,97328.16
2022-09-11T15:23:09.262Z,97332.44
2022-09-11T15:28:10.971Z,97337.03
2022-09-11T15:33:12.622Z,97331.19
2022-09-11T15:38:14.467Z,97331.69
2022-09-11T15:43:16.379Z,97334.25
2022-09-11T15:48:19.409Z,97334.22
2022-09-11T15:53:21.570Z,97328.03
2022-09-11T15:58:23.315Z,97331.63
2022-09-11T16:03:25.370Z,97329.19
2022-09-11T16:08:27.820Z,97319.22
2022-09-11T16:13:31.606Z,97322.16
2022-09-11T16:18:38.424Z,97329.38
2022-09-11T16:23:40.999Z,97335.28
2022-09-11T16:28:42.908Z,97333.94
2022-09-11T16:33:45.064Z,97331.50
2022-09-11T16:38:49.914Z,97333.59
2022-09-11T16:43:52.679Z,97338.38
2022-09-11T16:48:57.765Z,97333.66
2022-09-11T16:54:04.101Z,97343.09
2022-09-11T16:59:06.410Z,97342.06
2022-09-11T17:04:08.126Z,97349.84
2022-09-11T17:09:09.836Z,97341.94
2022-09-11T17:14:11.874Z,97338.31
2022-09-11T17:19:13.502Z,97334.94
2022-09-11T17:24:17.923Z,97341.78
2022-09-11T17:29:20.106Z,97339.78
2022-09-11T17:34:21.758Z,97336.84
2022-09-11T17:39:23.462Z,97334.66
2022-09-11T17:44:25.188Z,97341.28
2022-09-11T17:49:27.171Z,97348.53
2022-09-11T17:54:28.899Z,97347.50
2022-09-11T17:59:30.548Z,97356.41
2022-09-11T18:04:32.185Z,97359.91
2022-09-11T18:09:33.867Z,97359.06
2022-09-11T18:14:40.349Z,97361.53
2022-09-11T18:19:42.344Z,97369.31
2022-09-11T18:24:44.354Z,97363.75
2022-09-11T18:29:46.082Z,97369.00
2022-09-11T18:34:48.453Z,97371.22
2022-09-11T18:39:50.202Z,97378.72
2022-09-11T18:44:51.856Z,97378.22
2022-09-11T18:49:53.475Z,97375.50
2022-09-11T18:54:55.286Z,97370.69
2022-09-11T18:59:57.057Z,97375.66
2022-09-11T19:05:00.207Z,97381.44
2022-09-11T19:10:01.900Z,97381.88
2022-09-11T19:15:04.022Z,97381.09
2022-09-11T19:20:12.125Z,97397.28
2022-09-11T19:25:15.213Z,97396.50
2022-09-11T19:30:17.356Z,97398.28
2022-09-11T19:35:19.356Z,97407.06
2022-09-11T19:40:21.105Z,97400.25
2022-09-11T19:45:22.902Z,97405.34
2022-09-11T19:50:24.670Z,97403.88
2022-09-11T19:55:26.510Z,97406.03
2022-09-11T20:00:29.430Z,97399.09
2022-09-11T20:05:31.581Z,97401.22
2022-09-11T20:10:33.845Z,97398.19
2022-09-11T20:15:36.139Z,97404.25
2022-09-11T20:20:43.390Z,97402.13
2022-09-11T20:25:46.936Z,97392.38
2022-09-11T20:30:48.717Z,97394.00
2022-09-11T20:35:50.352Z,97394.56
2022-09-11T20:40:52.001Z,97388.41
2022-09-11T20:45:54.386Z,97386.34
2022-09-11T20:51:03.841Z,97388.97
2022-09-11T20:56:11.057Z,97384.03
2022-09-11T21:01:16.358Z,97387.00
2022-09-11T21:06:23.433Z,97379.59
2022-09-11T21:11:29.616Z,97381.59
2022-09-11T21:16:31.656Z,97385.53
2022-09-11T21:21:35.240Z,97397.16
2022-09-11T21:26:37.318Z,97396.06
2022-09-11T21:31:39.308Z,97389.59
2022-09-11T21:36:42.404Z,97394.56
2022-09-11T21:41:44.119Z,97389.50
2022-09-11T21:46:45.820Z,97394.38
2022-09-11T21:51:47.541Z,97381.16
2022-09-11T21:56:49.214Z,97388.31
2022-09-11T22:01:51.046Z,97380.59
2022-09-11T22:06:54.585Z,97385.03
2022-09-11T22:11:59.795Z,97387.59
2022-09-11T22:17:01.802Z,97379.63
2022-09-11T22:22:03.839Z,97377.16
2022-09-11T22:27:07.202Z,97384.94
2022-09-11T22:32:08.858Z,97382.41
2022-09-11T22:37:10.470Z,97391.72
2022-09-11T22:42:12.088Z,97392.22
2022-09-11T22:47:13.734Z,97378.03
2022-09-11T22:52:15.585Z,97383.97
2022-09-11T22:57:17.345Z,97383.91
2022-09-11T23:02:19.106Z,97378.09
2022-09-11T23:07:20.871Z,97374.53
2022-09-11T23:12:22.688Z,97383.63
2022-09-11T23:17:24.345Z,97376.44
2022-09-11T23:22:26.989Z,97369.56
2022-09-11T23:27:28.858Z,97373.47
2022-09-11T23:32:30.973Z,97367.16
2022-09-11T23:37:34.286Z,97363.09
2022-09-11T23:42:35.967Z,97351.84
2022-09-11T23:47:37.606Z,97355.69
2022-09-11T23:52:39.575Z,97352.97
2022-09-11T23:57:41.313Z,97350.75
